createdAt,value
2023-05-20T00:00:51.228Z,23.68
2023-05-20T00:03:20.266Z,23.67
2023-05-20T00:05:47.979Z,23.67
2023-05-20T00:08:15.563Z,23.68
2023-05-20T00:10:43.354Z,23.67
2023-05-20T00:13:11.047Z,23.65
2023-05-20T00:15:38.534Z,23.66
2023-05-20T00:18:06.364Z,23.65
2023-05-20T00:20:33.873Z,23.65
2023-05-20T00:23:01.332Z,23.64
2023-05-20T00:25:30.920Z,23.65
2023-05-20T00:27:58.431Z,23.64
2023-05-20T00:30:26.090Z,23.64
2023-05-20T00:32:53.916Z,23.62
2023-05-20T00:35:21.630Z,23.62
2023-05-20T00:37:49.110Z,23.62
2023-05-20T00:40:16.911Z,23.62
2023-05-20T00:42:44.406Z,23.62
2023-05-20T00:45:12.019Z,23.62
2023-05-20T00:47:40.454Z,23.61
2023-05-20T00:50:10.211Z,23.61
2023-05-20T00:52:37.859Z,23.61
2023-05-20T00:55:05.873Z,23.62
2023-05-20T00:57:33.337Z,23.61
2023-05-20T01:00:00.802Z,23.61
2023-05-20T01:02:28.905Z,23.61
2023-05-20T01:04:56.943Z,23.61
2023-05-20T01:07:25.909Z,23.60
2023-05-20T01:09:54.439Z,23.60
2023-05-20T01:12:31.167Z,23.61
2023-05-20T01:15:01.802Z,23.61
2023-05-20T01:17:31.352Z,23.59
2023-05-20T01:19:59.875Z,23.58
2023-05-20T01:22:27.882Z,23.57
2023-05-20T01:24:55.419Z,23.57
2023-05-20T01:27:23.527Z,23.57
2023-05-20T01:29:51.708Z,23.57
2023-05-20T01:32:28.205Z,23.56
2023-05-20T01:34:56.089Z,23.57
2023-05-20T01:37:23.623Z,23.57
2023-05-20T01:39:51.276Z,23.55
2023-05-20T01:42:19.140Z,23.56
2023-05-20T01:44:46.601Z,23.55
2023-05-20T01:47:14.180Z,23.55
2023-05-20T01:49:42.369Z,23.54
2023-05-20T01:52:09.821Z,23.55
2023-05-20T01:54:38.354Z,23.54
2023-05-20T01:57:06.183Z,23.55
2023-05-20T01:59:33.681Z,23.55
2023-05-20T02:02:01.160Z,23.53
2023-05-20T02:04:29.053Z,23.52
2023-05-20T02:06:56.532Z,23.53
2023-05-20T02:09:24.151Z,23.54
2023-05-20T02:11:53.267Z,23.53
2023-05-20T02:14:20.722Z,23.54
2023-05-20T02:16:48.387Z,23.52
2023-05-20T02:19:23.627Z,23.52
2023-05-20T02:21:51.783Z,23.53
2023-05-20T02:24:21.214Z,23.54
2023-05-20T02:26:51.220Z,23.54
2023-05-20T02:29:20.298Z,23.55
2023-05-20T02:31:49.049Z,23.54
2023-05-20T02:34:18.023Z,23.55
2023-05-20T02:36:46.015Z,23.54
2023-05-20T02:39:13.488Z,23.56
2023-05-20T02:41:40.956Z,23.54
2023-05-20T02:44:10.507Z,23.54
2023-05-20T02:46:38.107Z,23.55
2023-05-20T02:49:05.915Z,23.55
2023-05-20T02:51:33.714Z,23.54
2023-05-20T02:54:01.302Z,23.55
2023-05-20T02:56:28.775Z,23.55
2023-05-20T02:58:56.588Z,23.54
2023-05-20T03:01:24.364Z,23.54
2023-05-20T03:03:52.508Z,23.53
2023-05-20T03:06:20.661Z,23.54
2023-05-20T03:08:48.132Z,23.55
2023-05-20T03:11:16.123Z,23.54
2023-05-20T03:13:43.842Z,23.54
2023-05-20T03:16:13.271Z,23.53
2023-05-20T03:18:40.911Z,23.54
2023-05-20T03:21:08.988Z,23.54
2023-05-20T03:23:36.569Z,23.54
2023-05-20T03:26:04.106Z,23.54
2023-05-20T03:28:31.807Z,23.52
2023-05-20T03:30:59.241Z,23.53
2023-05-20T03:33:26.989Z,23.52
2023-05-20T03:35:54.932Z,23.53
2023-05-20T03:38:22.982Z,23.53
2023-05-20T03:40:50.507Z,23.51
2023-05-20T03:43:18.335Z,23.51
2023-05-20T03:45:45.831Z,23.52
2023-05-20T03:48:14.253Z,23.52
2023-05-20T03:50:43.123Z,23.52
2023-05-20T03:53:11.518Z,23.50
2023-05-20T03:55:39.587Z,23.51
2023-05-20T03:58:08.090Z,23.51
2023-05-20T04:00:35.737Z,23.50
2023-05-20T04:03:03.665Z,23.50
2023-05-20T04:05:31.700Z,23.51
2023-05-20T04:08:00.811Z,23.50
2023-05-20T04:10:28.568Z,23.51
2023-05-20T04:12:56.009Z,23.51
2023-05-20T04:15:26.370Z,23.52
2023-05-20T04:17:54.854Z,23.51
2023-05-20T04:20:22.687Z,23.52
2023-05-20T04:22:50.796Z,23.52
2023-05-20T04:25:18.757Z,23.52
2023-05-20T04:27:46.519Z,23.54
2023-05-20T04:30:14.236Z,23.54
2023-05-20T04:32:42.392Z,23.55
2023-05-20T04:35:12.250Z,23.56
2023-05-20T04:37:39.815Z,23.57
2023-05-20T04:40:09.240Z,23.66
2023-05-20T04:42:37.945Z,23.59
2023-05-20T04:45:06.235Z,23.57
2023-05-20T04:47:38.714Z,23.57
2023-05-20T04:50:10.613Z,23.57
2023-05-20T04:52:39.317Z,23.59
2023-05-20T04:55:10.287Z,23.59
2023-05-20T04:57:44.709Z,23.57
2023-05-20T05:00:13.427Z,23.59
2023-05-20T05:02:41.990Z,23.59
2023-05-20T05:05:10.088Z,23.58
2023-05-20T05:07:38.698Z,23.59
2023-05-20T05:10:07.189Z,23.59
2023-05-20T05:12:34.671Z,23.59
2023-05-20T05:15:02.979Z,23.60
2023-05-20T05:17:32.216Z,23.61
2023-05-20T05:19:59.795Z,23.62
2023-05-20T05:22:27.625Z,23.61
2023-05-20T05:24:55.928Z,23.62
2023-05-20T05:27:23.759Z,23.63
2023-05-20T05:29:51.293Z,23.62
2023-05-20T05:32:19.498Z,23.64
2023-05-20T05:34:47.006Z,23.64
2023-05-20T05:37:14.653Z,23.64
2023-05-20T05:39:42.592Z,23.63
2023-05-20T05:42:10.348Z,23.65
2023-05-20T05:44:38.560Z,23.65
2023-05-20T05:47:06.928Z,23.65
2023-05-20T05:49:34.714Z,23.66
2023-05-20T05:52:03.489Z,23.66
2023-05-20T05:54:31.408Z,23.66
2023-05-20T05:56:58.981Z,23.65
2023-05-20T05:59:26.703Z,23.65
2023-05-20T06:01:54.592Z,23.66
2023-05-20T06:04:22.556Z,23.65
2023-05-20T06:06:51.550Z,23.66
2023-05-20T06:09:19.072Z,23.67
2023-05-20T06:11:46.847Z,23.67
2023-05-20T06:14:14.317Z,23.67
2023-05-20T06:16:41.986Z,23.67
2023-05-20T06:19:09.855Z,23.67
2023-05-20T06:21:37.540Z,23.65
2023-05-20T06:24:05.705Z,23.64
2023-05-20T06:26:33.803Z,23.63
2023-05-20T06:29:02.849Z,23.64
2023-05-20T06:31:30.467Z,23.63
2023-05-20T06:33:58.511Z,23.64
2023-05-20T06:36:27.434Z,23.64
2023-05-20T06:38:55.069Z,23.64
2023-05-20T06:41:22.882Z,23.64
2023-05-20T06:43:53.471Z,23.65
2023-05-20T06:46:29.810Z,23.65
2023-05-20T06:48:57.589Z,23.65
2023-05-20T06:51:25.159Z,23.66
2023-05-20T06:53:53.085Z,23.64
2023-05-20T06:56:21.633Z,23.64
2023-05-20T06:58:49.521Z,23.64
2023-05-20T07:01:18.288Z,23.65
2023-05-20T07:03:46.541Z,23.66
2023-05-20T07:06:14.079Z,23.65
2023-05-20T07:08:41.809Z,23.65
2023-05-20T07:11:09.749Z,23.65
2023-05-20T07:13:37.831Z,23.65
2023-05-20T07:16:06.668Z,23.65
2023-05-20T07:18:35.518Z,23.67
2023-05-20T07:21:02.945Z,23.68
2023-05-20T07:23:31.372Z,23.67
2023-05-20T07:25:59.189Z,23.68
2023-05-20T07:28:26.729Z,23.68
2023-05-20T07:30:57.078Z,23.69
2023-05-20T07:33:24.937Z,23.71
2023-05-20T07:35:54.584Z,23.72
2023-05-20T07:38:22.774Z,23.74
2023-05-20T07:40:54.009Z,23.75
2023-05-20T07:43:22.051Z,23.77
2023-05-20T07:45:49.612Z,23.75
2023-05-20T07:48:17.119Z,23.74
2023-05-20T07:50:44.834Z,23.76
2023-05-20T07:53:12.687Z,23.76
2023-05-20T07:55:40.227Z,23.77
2023-05-20T07:58:08.066Z,23.77
2023-05-20T08:00:36.012Z,23.77
2023-05-20T08:03:04.218Z,23.77
2023-05-20T08:05:32.392Z,23.77
2023-05-20T08:08:00.180Z,23.79
2023-05-20T08:10:28.752Z,23.79
2023-05-20T08:12:56.426Z,23.79
2023-05-20T08:15:24.287Z,23.80
2023-05-20T08:17:52.064Z,23.80
2023-05-20T08:20:20.326Z,23.80
2023-05-20T08:22:47.773Z,23.80
2023-05-20T08:25:16.172Z,23.80
2023-05-20T08:27:45.094Z,23.80
2023-05-20T08:30:13.712Z,23.82
2023-05-20T08:32:42.076Z,23.81
2023-05-20T08:35:09.971Z,23.83
2023-05-20T08:37:37.412Z,23.82
2023-05-20T08:40:05.623Z,23.82
2023-05-20T08:42:33.091Z,23.82
2023-05-20T08:45:00.774Z,23.83
2023-05-20T08:47:29.148Z,23.82
2023-05-20T08:49:56.672Z,23.84
2023-05-20T08:52:24.146Z,23.84
2023-05-20T08:54:52.090Z,23.83
2023-05-20T08:57:20.491Z,23.85
2023-05-20T08:59:48.022Z,23.85
2023-05-20T09:02:15.812Z,23.85
2023-05-20T09:04:43.587Z,23.84
2023-05-20T09:07:11.133Z,23.86
2023-05-20T09:09:38.877Z,23.86
2023-05-20T09:12:06.706Z,23.86
2023-05-20T09:14:34.215Z,23.86
2023-05-20T09:17:01.953Z,23.86
2023-05-20T09:19:29.601Z,23.86
2023-05-20T09:21:57.160Z,23.86
2023-05-20T09:24:25.789Z,23.88
2023-05-20T09:26:53.242Z,23.87
2023-05-20T09:29:21.931Z,23.88
2023-05-20T09:31:50.279Z,23.87
2023-05-20T09:34:17.845Z,23.87
2023-05-20T09:36:45.550Z,23.89
2023-05-20T09:39:16.071Z,23.88
2023-05-20T09:41:57.944Z,23.88
2023-05-20T09:44:25.666Z,23.90
2023-05-20T09:46:53.329Z,23.89
2023-05-20T09:49:21.397Z,23.89
2023-05-20T09:51:49.927Z,23.90
2023-05-20T09:54:20.699Z,23.89
2023-05-20T09:56:48.260Z,23.90
2023-05-20T09:59:18.713Z,23.91
2023-05-20T10:01:46.599Z,23.91
2023-05-20T10:04:14.383Z,23.92
2023-05-20T10:07:11.789Z,23.91
2023-05-20T10:09:57.324Z,23.93
2023-05-20T10:12:34.506Z,23.94
2023-05-20T10:15:22.176Z,23.95
2023-05-20T10:18:05.473Z,23.94
2023-05-20T10:20:33.241Z,23.91
2023-05-20T10:23:00.762Z,23.92
2023-05-20T10:25:28.530Z,23.93
2023-05-20T10:28:08.270Z,23.94
2023-05-20T10:30:36.466Z,23.96
2023-05-20T10:33:05.924Z,23.95
2023-05-20T10:35:33.486Z,23.95
2023-05-20T10:38:13.027Z,23.96
2023-05-20T10:40:41.302Z,23.97
2023-05-20T10:43:12.750Z,23.96
2023-05-20T10:45:52.621Z,23.96
2023-05-20T10:48:27.569Z,23.98
2023-05-20T10:50:57.081Z,24.06
2023-05-20T10:53:33.475Z,24.01
2023-05-20T10:56:01.446Z,23.98
2023-05-20T10:58:37.018Z,23.98
2023-05-20T11:01:04.464Z,24.00
2023-05-20T11:03:32.367Z,24.00
2023-05-20T11:05:59.824Z,24.02
2023-05-20T11:08:33.532Z,24.02
2023-05-20T11:11:01.333Z,24.01
2023-05-20T11:13:28.844Z,24.02
2023-05-20T11:15:56.704Z,24.02
2023-05-20T11:18:24.468Z,24.04
2023-05-20T11:20:53.674Z,24.04
2023-05-20T11:23:23.342Z,24.04
2023-05-20T11:25:52.339Z,24.06
2023-05-20T11:28:21.301Z,24.05
2023-05-20T11:30:48.782Z,24.06
2023-05-20T11:33:17.444Z,24.05
2023-05-20T11:35:49.565Z,24.05
2023-05-20T11:38:17.387Z,24.06
2023-05-20T11:40:51.706Z,24.09
2023-05-20T11:43:20.329Z,24.07
2023-05-20T11:45:52.408Z,24.08
2023-05-20T11:48:20.386Z,24.07
2023-05-20T11:50:48.315Z,24.08
2023-05-20T11:53:19.622Z,24.07
2023-05-20T11:55:50.168Z,24.09
2023-05-20T11:58:21.843Z,24.09
2023-05-20T12:00:53.143Z,24.07
2023-05-20T12:03:22.942Z,24.07
2023-05-20T12:05:51.320Z,24.09
2023-05-20T12:08:18.845Z,24.08
2023-05-20T12:10:46.899Z,24.09
2023-05-20T12:13:14.391Z,24.11
2023-05-20T12:15:41.998Z,24.11
2023-05-20T12:18:10.057Z,24.13
2023-05-20T12:20:38.101Z,24.12
2023-05-20T12:23:05.846Z,24.13
2023-05-20T12:25:33.611Z,24.13
2023-05-20T12:28:02.000Z,24.15
2023-05-20T12:30:29.510Z,24.15
2023-05-20T12:32:57.377Z,24.15
2023-05-20T12:35:35.992Z,24.17
2023-05-20T12:38:03.713Z,24.16
2023-05-20T12:40:31.151Z,24.18
2023-05-20T12:42:59.113Z,24.19
2023-05-20T12:45:26.862Z,24.19
2023-05-20T12:47:57.538Z,24.18
2023-05-20T12:50:25.759Z,24.19
2023-05-20T12:52:53.520Z,24.18
2023-05-20T12:55:21.343Z,24.19
2023-05-20T12:57:48.812Z,24.20
2023-05-20T13:00:16.920Z,24.19
2023-05-20T13:02:44.598Z,24.19
2023-05-20T13:05:12.388Z,24.21
2023-05-20T13:07:40.313Z,24.19
2023-05-20T13:10:08.171Z,24.21
2023-05-20T13:12:35.826Z,24.22
2023-05-20T13:15:04.373Z,24.21
2023-05-20T13:17:32.117Z,24.20
2023-05-20T13:20:00.166Z,24.22
2023-05-20T13:22:28.238Z,24.22
2023-05-20T13:24:55.641Z,24.21
2023-05-20T13:27:23.126Z,24.23
2023-05-20T13:29:50.847Z,24.23
2023-05-20T13:32:18.367Z,24.23
2023-05-20T13:34:45.870Z,24.24
2023-05-20T13:37:13.668Z,24.26
2023-05-20T13:39:41.089Z,24.25
2023-05-20T13:42:08.529Z,24.23
2023-05-20T13:44:36.356Z,24.22
2023-05-20T13:47:03.901Z,24.21
2023-05-20T13:49:31.390Z,24.22
2023-05-20T13:51:59.097Z,24.22
2023-05-20T13:54:26.559Z,24.23
2023-05-20T13:56:53.983Z,24.22
2023-05-20T13:59:21.760Z,24.22
2023-05-20T14:01:49.344Z,24.22
2023-05-20T14:04:17.318Z,24.21
2023-05-20T14:06:44.790Z,24.22
2023-05-20T14:09:12.230Z,24.22
2023-05-20T14:11:40.002Z,24.23
2023-05-20T14:14:07.443Z,24.24
2023-05-20T14:16:34.938Z,24.22
2023-05-20T14:19:02.747Z,24.23
2023-05-20T14:21:30.253Z,24.23
2023-05-20T14:23:58.811Z,24.22
2023-05-20T14:26:26.552Z,24.23
2023-05-20T14:28:54.012Z,24.24
2023-05-20T14:31:21.527Z,24.24
2023-05-20T14:33:49.561Z,24.26
2023-05-20T14:36:17.092Z,24.25
2023-05-20T14:38:44.588Z,24.25
2023-05-20T14:41:12.335Z,24.26
2023-05-20T14:43:39.772Z,24.28
2023-05-20T14:46:07.300Z,24.28
2023-05-20T14:48:35.050Z,24.29
2023-05-20T14:51:02.529Z,24.29
2023-05-20T14:53:29.977Z,24.29
2023-05-20T14:55:57.732Z,24.31
2023-05-20T14:58:25.438Z,24.31
2023-05-20T15:00:53.479Z,24.32
2023-05-20T15:03:23.448Z,24.33
2023-05-20T15:05:51.076Z,24.32
2023-05-20T15:08:18.554Z,24.34
2023-05-20T15:10:46.516Z,24.34
2023-05-20T15:13:13.973Z,24.33
2023-05-20T15:15:41.450Z,24.35
2023-05-20T15:18:09.333Z,24.35
2023-05-20T15:20:37.130Z,24.35
2023-05-20T15:23:04.599Z,24.36
2023-05-20T15:25:32.496Z,24.37
2023-05-20T15:27:59.987Z,24.36
2023-05-20T15:30:27.428Z,24.37
2023-05-20T15:32:55.328Z,24.38
2023-05-20T15:35:22.787Z,24.40
2023-05-20T15:37:50.252Z,24.39
2023-05-20T15:40:18.026Z,24.38
2023-05-20T15:42:45.718Z,24.39
2023-05-20T15:45:13.229Z,24.38
2023-05-20T15:47:41.080Z,24.38
2023-05-20T15:50:09.302Z,24.38
2023-05-20T15:52:37.419Z,24.36
2023-05-20T15:55:05.731Z,24.37
2023-05-20T15:57:33.189Z,24.36
2023-05-20T16:00:00.641Z,24.36
2023-05-20T16:02:28.793Z,24.37
2023-05-20T16:04:56.702Z,24.36
2023-05-20T16:07:24.164Z,24.35
2023-05-20T16:09:51.640Z,24.36
2023-05-20T16:12:19.335Z,24.35
2023-05-20T16:14:46.752Z,24.35
2023-05-20T16:17:14.457Z,24.35
2023-05-20T16:19:42.278Z,24.35
2023-05-20T16:22:09.794Z,24.36
2023-05-20T16:24:37.296Z,24.36
2023-05-20T16:27:05.444Z,24.35
2023-05-20T16:29:33.035Z,24.35
2023-05-20T16:32:00.634Z,24.35
2023-05-20T16:34:28.484Z,24.35
2023-05-20T16:36:56.100Z,24.34
2023-05-20T16:39:23.543Z,24.35
2023-05-20T16:41:51.369Z,24.35
2023-05-20T16:44:18.822Z,24.33
2023-05-20T16:46:46.298Z,24.34
2023-05-20T16:49:14.023Z,24.34
2023-05-20T16:51:41.716Z,24.33
2023-05-20T16:54:09.290Z,24.34
2023-05-20T16:56:37.224Z,24.34
2023-05-20T16:59:04.736Z,24.34
2023-05-20T17:01:32.232Z,24.32
2023-05-20T17:04:00.070Z,24.33
2023-05-20T17:06:27.680Z,24.32
2023-05-20T17:08:55.172Z,24.33
2023-05-20T17:11:22.916Z,24.33
2023-05-20T17:13:50.514Z,24.33
2023-05-20T17:16:18.024Z,24.33
2023-05-20T17:18:45.991Z,24.32
2023-05-20T17:21:15.581Z,24.32
2023-05-20T17:23:43.208Z,24.33
2023-05-20T17:26:11.036Z,24.33
2023-05-20T17:28:38.531Z,24.33
2023-05-20T17:31:06.221Z,24.33
2023-05-20T17:33:34.013Z,24.32
2023-05-20T17:36:01.672Z,24.32
2023-05-20T17:38:29.154Z,24.32
2023-05-20T17:40:56.864Z,24.32
2023-05-20T17:43:25.626Z,24.31
2023-05-20T17:45:53.218Z,24.32
2023-05-20T17:48:21.147Z,24.33
2023-05-20T17:50:48.915Z,24.32
2023-05-20T17:53:18.746Z,24.32
2023-05-20T17:55:49.505Z,24.32
2023-05-20T17:58:17.024Z,24.32
2023-05-20T18:00:44.597Z,24.32
2023-05-20T18:03:13.963Z,24.32
2023-05-20T18:05:41.571Z,24.33
2023-05-20T18:08:09.006Z,24.33
2023-05-20T18:10:36.866Z,24.33
2023-05-20T18:13:06.738Z,24.32
2023-05-20T18:15:34.217Z,24.31
2023-05-20T18:18:02.513Z,24.32
2023-05-20T18:20:30.043Z,24.32
2023-05-20T18:23:00.634Z,24.31
2023-05-20T18:25:28.426Z,24.33
2023-05-20T18:27:55.982Z,24.31
2023-05-20T18:30:23.543Z,24.31
2023-05-20T18:32:51.738Z,24.30
2023-05-20T18:35:19.182Z,24.31
2023-05-20T18:37:46.756Z,24.31
2023-05-20T18:40:14.527Z,24.30
2023-05-20T18:42:41.971Z,24.30
2023-05-20T18:45:09.831Z,24.30
2023-05-20T18:47:37.585Z,24.29
2023-05-20T18:50:05.623Z,24.30
2023-05-20T18:52:33.090Z,24.30
2023-05-20T18:55:01.073Z,24.30
2023-05-20T18:57:28.848Z,24.30
2023-05-20T18:59:56.449Z,24.29
2023-05-20T19:02:24.238Z,24.29
2023-05-20T19:04:51.886Z,24.29
2023-05-20T19:07:19.587Z,24.29
2023-05-20T19:09:47.313Z,24.29
2023-05-20T19:12:14.814Z,24.27
2023-05-20T19:14:42.245Z,24.27
2023-05-20T19:17:09.930Z,24.27
2023-05-20T19:19:37.421Z,24.27
2023-05-20T19:22:05.054Z,24.26
2023-05-20T19:24:32.784Z,24.27
2023-05-20T19:27:00.864Z,24.27
2023-05-20T19:29:28.561Z,24.26
2023-05-20T19:31:56.544Z,24.26
2023-05-20T19:34:24.256Z,24.25
2023-05-20T19:36:51.895Z,24.25
2023-05-20T19:39:19.934Z,24.25
2023-05-20T19:41:48.687Z,24.24
2023-05-20T19:44:16.171Z,24.23
2023-05-20T19:46:43.894Z,24.24
2023-05-20T19:49:11.446Z,24.24
2023-05-20T19:51:38.981Z,24.23
2023-05-20T19:54:06.726Z,24.22
2023-05-20T19:56:34.272Z,24.22
2023-05-20T19:59:02.122Z,24.22
2023-05-20T20:01:30.396Z,24.22
2023-05-20T20:03:58.128Z,24.22
2023-05-20T20:06:25.602Z,24.22
2023-05-20T20:08:53.063Z,24.21
2023-05-20T20:11:21.413Z,24.20
2023-05-20T20:13:48.877Z,24.21
2023-05-20T20:16:17.430Z,24.22
2023-05-20T20:18:45.218Z,24.19
2023-05-20T20:21:14.880Z,24.19
2023-05-20T20:23:43.421Z,24.19
2023-05-20T20:26:13.621Z,24.19
2023-05-20T20:28:41.220Z,24.21
2023-05-20T20:31:08.697Z,24.19
2023-05-20T20:33:36.702Z,24.19
2023-05-20T20:36:04.354Z,24.19
2023-05-20T20:38:33.170Z,24.19
2023-05-20T20:41:03.805Z,24.19
2023-05-20T20:43:31.335Z,24.20
2023-05-20T20:46:00.034Z,24.21
2023-05-20T20:48:27.775Z,24.21
2023-05-20T20:50:55.297Z,24.23
2023-05-20T20:53:22.844Z,24.23
2023-05-20T20:55:51.537Z,24.23
2023-05-20T20:58:19.085Z,24.24
2023-05-20T21:00:48.696Z,24.25
2023-05-20T21:03:16.785Z,24.25
2023-05-20T21:05:44.509Z,24.27
2023-05-20T21:08:13.273Z,24.26
2023-05-20T21:10:41.129Z,24.25
2023-05-20T21:13:08.614Z,24.27
2023-05-20T21:15:36.237Z,24.27
2023-05-20T21:18:04.226Z,24.26
2023-05-20T21:20:31.730Z,24.27
2023-05-20T21:22:59.168Z,24.27
2023-05-20T21:25:26.868Z,24.28
2023-05-20T21:27:54.334Z,24.26
2023-05-20T21:30:23.796Z,24.27
2023-05-20T21:32:51.579Z,24.27
2023-05-20T21:35:19.060Z,24.28
2023-05-20T21:37:46.493Z,24.28
2023-05-20T21:40:14.287Z,24.27
2023-05-20T21:42:41.724Z,24.27
2023-05-20T21:45:10.190Z,24.28
2023-05-20T21:47:37.991Z,24.27
2023-05-20T21:50:06.511Z,24.27
2023-05-20T21:52:34.042Z,24.27
2023-05-20T21:55:01.789Z,24.27
2023-05-20T21:57:29.429Z,24.27
2023-05-20T21:59:56.920Z,24.28
2023-05-20T22:02:24.737Z,24.28
2023-05-20T22:04:52.541Z,24.27
2023-05-20T22:07:20.104Z,24.27
2023-05-20T22:09:47.626Z,24.27
2023-05-20T22:12:15.534Z,24.27
2023-05-20T22:14:43.135Z,24.27
2023-05-20T22:17:10.666Z,24.28
2023-05-20T22:19:38.903Z,24.28
2023-05-20T22:22:06.525Z,24.27
2023-05-20T22:24:33.978Z,24.27
2023-05-20T22:27:01.841Z,24.28
2023-05-20T22:29:31.583Z,24.28
2023-05-20T22:31:59.285Z,24.27
2023-05-20T22:34:27.203Z,24.28
2023-05-20T22:36:54.641Z,24.28
2023-05-20T22:39:22.206Z,24.28
2023-05-20T22:41:49.973Z,24.28
2023-05-20T22:44:17.435Z,24.28
2023-05-20T22:46:44.917Z,24.28
2023-05-20T22:49:13.021Z,24.28
2023-05-20T22:51:41.086Z,24.29
2023-05-20T22:54:09.686Z,24.29
2023-05-20T22:56:37.485Z,24.28
2023-05-20T22:59:04.933Z,24.30
2023-05-20T23:01:32.646Z,24.29
2023-05-20T23:04:00.610Z,24.28
2023-05-20T23:06:28.103Z,24.29
2023-05-20T23:08:55.542Z,24.29
2023-05-20T23:11:23.908Z,24.30
2023-05-20T23:13:51.498Z,24.29
2023-05-20T23:16:18.973Z,24.30
2023-05-20T23:18:47.571Z,24.30
2023-05-20T23:21:15.274Z,24.29
2023-05-20T23:23:42.740Z,24.30
2023-05-20T23:26:10.546Z,24.30
2023-05-20T23:28:38.114Z,24.29
2023-05-20T23:31:05.565Z,24.30
2023-05-20T23:33:33.425Z,24.30
2023-05-20T23:36:01.129Z,24.29
2023-05-20T23:38:28.630Z,24.29
2023-05-20T23:40:56.327Z,24.29
2023-05-20T23:43:23.754Z,24.30
2023-05-20T23:45:51.263Z,24.28
2023-05-20T23:48:19.921Z,24.29
2023-05-20T23:50:48.152Z,24.29
2023-05-20T23:53:15.924Z,24.29
2023-05-20T23:55:45.165Z,24.29
2023-05-20T23:58:12.644Z,24.29
